createdAt,value
2023-04-28T00:00:29.162Z,11.77
2023-04-28T00:02:57.414Z,11.90
2023-04-28T00:05:25.223Z,12.20
2023-04-28T00:07:52.193Z,12.03
2023-04-28T00:10:19.088Z,12.57
2023-04-28T00:12:47.120Z,12.67
2023-04-28T00:15:15.404Z,13.17
2023-04-28T00:17:43.461Z,11.90
2023-04-28T00:20:11.270Z,12.40
2023-04-28T00:22:38.343Z,13.03
2023-04-28T00:25:06.253Z,13.47
2023-04-28T00:27:33.844Z,13.33
2023-04-28T00:30:03.934Z,12.33
2023-04-28T00:32:33.895Z,12.93
2023-04-28T00:35:01.599Z,11.80
2023-04-28T00:37:28.468Z,12.97
2023-04-28T00:39:58.074Z,12.63
2023-04-28T00:42:24.933Z,10.47
2023-04-28T00:44:51.794Z,12.70
2023-04-28T00:47:19.918Z,11.73
2023-04-28T00:49:49.633Z,13.37
2023-04-28T00:52:16.653Z,12.47
2023-04-28T00:54:43.652Z,14.37
2023-04-28T00:57:19.128Z,13.43
2023-04-28T00:59:46.130Z,12.53
2023-04-28T01:02:19.384Z,12.80
2023-04-28T01:04:47.336Z,13.73
2023-04-28T01:07:14.295Z,13.63
2023-04-28T01:09:41.092Z,12.97
2023-04-28T01:12:08.162Z,12.73
2023-04-28T01:14:35.569Z,13.03
2023-04-28T01:17:03.937Z,13.40
2023-04-28T01:19:31.881Z,12.50
2023-04-28T01:21:59.679Z,13.47
2023-04-28T01:24:26.476Z,13.53
2023-04-28T01:26:53.383Z,12.37
2023-04-28T01:29:22.418Z,12.90
2023-04-28T01:31:51.358Z,14.03
2023-04-28T01:34:24.145Z,12.53
2023-04-28T01:36:51.169Z,13.27
2023-04-28T01:39:20.378Z,12.37
2023-04-28T01:41:47.266Z,12.67
2023-04-28T01:44:14.468Z,13.90
2023-04-28T01:46:41.916Z,13.77
2023-04-28T01:49:08.893Z,12.53
2023-04-28T01:51:35.912Z,13.60
2023-04-28T01:54:02.675Z,13.00
2023-04-28T01:56:30.657Z,12.87
2023-04-28T01:58:58.558Z,12.63
2023-04-28T02:01:25.506Z,12.73
2023-04-28T02:03:52.988Z,13.30
2023-04-28T02:06:21.094Z,13.73
2023-04-28T02:08:48.117Z,14.57
2023-04-28T02:11:14.978Z,14.07
2023-04-28T02:13:43.090Z,12.90
2023-04-28T02:16:09.968Z,14.33
2023-04-28T02:18:37.073Z,14.03
2023-04-28T02:21:11.814Z,13.43
2023-04-28T02:23:39.932Z,14.13
2023-04-28T02:26:07.120Z,13.97
2023-04-28T02:28:34.134Z,14.30
2023-04-28T02:31:09.641Z,14.93
2023-04-28T02:33:37.410Z,15.50
2023-04-28T02:36:05.620Z,14.40
2023-04-28T02:38:32.783Z,14.60
2023-04-28T02:41:00.273Z,13.90
2023-04-28T02:43:28.072Z,13.20
2023-04-28T02:45:55.292Z,14.80
2023-04-28T02:48:24.552Z,14.27
2023-04-28T02:50:53.812Z,14.77
2023-04-28T02:53:21.639Z,13.93
2023-04-28T02:55:49.943Z,15.60
2023-04-28T02:58:18.111Z,13.60
2023-04-28T03:00:46.525Z,14.17
2023-04-28T03:03:13.967Z,13.57
2023-04-28T03:05:41.176Z,14.97
2023-04-28T03:08:08.183Z,14.20
2023-04-28T03:10:37.242Z,15.27
2023-04-28T03:13:04.050Z,15.30
2023-04-28T03:15:31.819Z,14.67
2023-04-28T03:17:58.810Z,14.23
2023-04-28T03:20:25.643Z,14.80
2023-04-28T03:22:52.800Z,15.70
2023-04-28T03:25:19.749Z,14.37
2023-04-28T03:27:46.529Z,14.80
2023-04-28T03:30:14.718Z,13.57
2023-04-28T03:32:41.759Z,15.03
2023-04-28T03:35:09.927Z,14.60
2023-04-28T03:37:36.992Z,13.87
2023-04-28T03:40:04.351Z,12.73
2023-04-28T03:42:31.253Z,15.30
2023-04-28T03:44:58.272Z,14.00
2023-04-28T03:47:26.284Z,14.47
2023-04-28T03:49:54.188Z,14.03
2023-04-28T03:52:21.322Z,13.40
2023-04-28T03:54:49.261Z,13.23
2023-04-28T03:57:16.276Z,13.57
2023-04-28T03:59:43.531Z,15.17
2023-04-28T04:02:10.567Z,14.63
2023-04-28T04:04:37.822Z,14.83
2023-04-28T04:07:04.980Z,14.67
2023-04-28T04:09:31.928Z,14.93
2023-04-28T04:12:01.168Z,14.10
2023-04-28T04:14:28.033Z,14.93
2023-04-28T04:16:57.320Z,14.80
2023-04-28T04:19:26.385Z,14.90
2023-04-28T04:21:53.474Z,15.60
2023-04-28T04:24:20.485Z,15.17
2023-04-28T04:26:48.355Z,14.90
2023-04-28T04:29:15.305Z,15.47
2023-04-28T04:31:45.371Z,14.77
2023-04-28T04:34:12.712Z,15.70
2023-04-28T04:36:39.811Z,15.63
2023-04-28T04:39:09.643Z,15.10
2023-04-28T04:41:36.515Z,15.73
2023-04-28T04:44:04.500Z,15.03
2023-04-28T04:46:31.986Z,15.47
2023-04-28T04:48:59.051Z,13.90
2023-04-28T04:51:26.032Z,14.40
2023-04-28T04:53:54.114Z,15.23
2023-04-28T04:56:21.002Z,17.07
2023-04-28T04:58:50.802Z,16.90
2023-04-28T05:01:17.627Z,18.37
2023-04-28T05:03:44.718Z,19.63
2023-04-28T05:06:12.076Z,21.87
2023-04-28T05:08:39.117Z,21.37
2023-04-28T05:11:05.825Z,19.40
2023-04-28T05:13:33.827Z,18.00
2023-04-28T05:16:00.678Z,17.33
2023-04-28T05:18:28.858Z,16.67
2023-04-28T05:20:55.692Z,16.13
2023-04-28T05:23:23.663Z,16.07
2023-04-28T05:25:51.154Z,17.40
2023-04-28T05:28:20.073Z,16.47
2023-04-28T05:30:48.367Z,16.23
2023-04-28T05:33:15.279Z,14.10
2023-04-28T05:35:42.473Z,14.17
2023-04-28T05:38:09.708Z,12.90
2023-04-28T05:40:36.590Z,12.07
2023-04-28T05:43:03.379Z,11.77
2023-04-28T05:45:30.557Z,11.97
2023-04-28T05:47:57.454Z,12.10
2023-04-28T05:50:24.372Z,12.10
2023-04-28T05:52:51.361Z,11.30
2023-04-28T05:55:18.212Z,12.17
2023-04-28T05:57:53.001Z,11.20
2023-04-28T06:00:20.518Z,10.83
2023-04-28T06:02:47.465Z,11.93
2023-04-28T06:05:14.563Z,11.50
2023-04-28T06:07:41.592Z,11.63
2023-04-28T06:10:10.032Z,12.80
2023-04-28T06:12:38.193Z,12.73
2023-04-28T06:15:06.568Z,12.17
2023-04-28T06:17:34.282Z,11.50
2023-04-28T06:20:01.336Z,11.50
2023-04-28T06:22:28.519Z,11.70
2023-04-28T06:24:56.522Z,12.83
2023-04-28T06:27:23.368Z,13.13
2023-04-28T06:29:50.614Z,11.53
2023-04-28T06:32:23.345Z,12.33
2023-04-28T06:34:50.410Z,10.00
2023-04-28T06:37:17.354Z,11.50
2023-04-28T06:39:44.544Z,13.00
2023-04-28T06:42:12.436Z,12.07
2023-04-28T06:44:39.263Z,11.67
2023-04-28T06:47:07.340Z,11.20
2023-04-28T06:49:34.170Z,10.57
2023-04-28T06:52:01.398Z,10.17
2023-04-28T06:54:30.920Z,11.83
2023-04-28T06:56:57.852Z,11.00
2023-04-28T06:59:26.442Z,10.03
2023-04-28T07:01:53.318Z,9.77
2023-04-28T07:04:20.532Z,9.37
2023-04-28T07:06:48.928Z,7.97
2023-04-28T07:09:17.445Z,7.13
2023-04-28T07:11:45.230Z,7.83
2023-04-28T07:14:12.268Z,7.43
2023-04-28T07:16:39.529Z,7.30
2023-04-28T07:19:06.440Z,6.63
2023-04-28T07:21:34.725Z,5.70
2023-04-28T07:24:02.887Z,6.97
2023-04-28T07:26:29.749Z,6.00
2023-04-28T07:28:57.708Z,5.40
2023-04-28T07:31:24.756Z,4.90
2023-04-28T07:33:51.773Z,4.27
2023-04-28T07:36:18.644Z,4.03
2023-04-28T07:38:45.963Z,3.67
2023-04-28T07:41:13.150Z,3.20
2023-04-28T07:43:40.526Z,3.30
2023-04-28T07:46:09.970Z,3.40
2023-04-28T07:48:37.126Z,3.47
2023-04-28T07:51:06.309Z,3.50
2023-04-28T07:53:33.872Z,3.73
2023-04-28T07:56:01.154Z,3.03
2023-04-28T07:58:30.033Z,3.77
2023-04-28T08:00:56.914Z,3.47
2023-04-28T08:03:23.899Z,3.00
2023-04-28T08:05:52.205Z,2.83
2023-04-28T08:08:19.229Z,2.10
2023-04-28T08:10:46.199Z,2.23
2023-04-28T08:13:13.320Z,2.00
2023-04-28T08:15:40.654Z,1.92
2023-04-28T08:18:10.010Z,1.70
2023-04-28T08:20:36.924Z,1.95
2023-04-28T08:23:04.920Z,3.20
2023-04-28T08:25:31.793Z,2.90
2023-04-28T08:27:58.878Z,3.97
2023-04-28T08:30:25.918Z,2.75
2023-04-28T08:32:53.181Z,2.40
2023-04-28T08:35:21.403Z,3.15
2023-04-28T08:37:49.569Z,3.90
2023-04-28T08:40:17.548Z,2.57
2023-04-28T08:42:46.253Z,3.42
2023-04-28T08:45:17.469Z,3.47
2023-04-28T08:47:49.723Z,2.50
2023-04-28T08:50:21.484Z,2.67
2023-04-28T08:52:48.725Z,2.70
2023-04-28T08:55:18.313Z,2.90
2023-04-28T08:57:54.761Z,3.17
2023-04-28T09:00:21.791Z,2.40
2023-04-28T09:02:48.892Z,2.70
2023-04-28T09:05:16.243Z,2.60
2023-04-28T09:07:47.017Z,2.88
2023-04-28T09:10:21.288Z,2.57
2023-04-28T09:12:51.290Z,2.63
2023-04-28T09:15:38.498Z,3.15
2023-04-28T09:18:07.062Z,3.60
2023-04-28T09:20:35.559Z,2.80
2023-04-28T09:23:22.678Z,2.97
2023-04-28T09:26:08.051Z,2.47
2023-04-28T09:28:36.660Z,2.50
2023-04-28T09:31:04.168Z,2.80
2023-04-28T09:33:32.408Z,2.10
2023-04-28T09:36:00.137Z,2.40
2023-04-28T09:38:27.195Z,2.47
2023-04-28T09:41:02.204Z,2.78
2023-04-28T09:43:34.375Z,2.58
2023-04-28T09:46:04.587Z,2.57
2023-04-28T09:48:36.332Z,2.50
2023-04-28T09:51:06.103Z,3.93
2023-04-28T09:53:34.325Z,2.80
2023-04-28T09:56:03.803Z,3.35
2023-04-28T09:58:32.974Z,8.83
2023-04-28T10:01:01.053Z,2.30
2023-04-28T10:03:30.710Z,3.60
2023-04-28T10:06:02.495Z,2.83
2023-04-28T10:08:29.870Z,2.72
2023-04-28T10:10:57.893Z,10.57
2023-04-28T10:13:26.196Z,3.83
2023-04-28T10:15:58.216Z,3.40
2023-04-28T10:18:26.497Z,3.30
2023-04-28T10:21:00.847Z,3.13
2023-04-28T10:23:59.723Z,3.00
2023-04-28T10:26:52.855Z,4.13
2023-04-28T10:29:26.971Z,3.50
2023-04-28T10:32:16.471Z,3.50
2023-04-28T10:34:45.724Z,2.67
2023-04-28T10:37:19.049Z,4.20
2023-04-28T10:40:23.328Z,3.53
2023-04-28T10:42:56.900Z,2.90
2023-04-28T10:45:59.638Z,3.13
2023-04-28T10:48:30.960Z,3.80
2023-04-28T10:51:21.588Z,3.30
2023-04-28T10:53:49.488Z,2.92
2023-04-28T10:56:26.781Z,4.03
2023-04-28T10:59:00.888Z,4.07
2023-04-28T11:01:29.784Z,3.65
2023-04-28T11:04:08.371Z,3.97
2023-04-28T11:06:45.970Z,3.25
2023-04-28T11:09:14.296Z,3.75
2023-04-28T11:12:00.424Z,4.22
2023-04-28T11:14:31.517Z,4.13
2023-04-28T11:17:03.969Z,3.55
2023-04-28T11:19:30.876Z,3.97
2023-04-28T11:22:00.005Z,3.20
2023-04-28T11:24:31.663Z,4.05
2023-04-28T11:26:59.267Z,3.55
2023-04-28T11:29:42.815Z,4.63
2023-04-28T11:32:10.866Z,4.28
2023-04-28T11:34:38.135Z,4.10
2023-04-28T11:37:08.508Z,3.75
2023-04-28T11:39:35.929Z,3.95
2023-04-28T11:42:09.727Z,4.38
2023-04-28T11:44:36.918Z,4.57
2023-04-28T11:47:06.098Z,3.80
2023-04-28T11:49:44.878Z,3.90
2023-04-28T11:52:12.783Z,3.38
2023-04-28T11:54:44.681Z,4.15
2023-04-28T11:57:20.481Z,3.75
2023-04-28T11:59:47.859Z,4.47
2023-04-28T12:02:17.061Z,4.30
2023-04-28T12:04:52.157Z,4.18
2023-04-28T12:07:19.789Z,4.13
2023-04-28T12:10:18.885Z,3.92
2023-04-28T12:12:52.538Z,4.00
2023-04-28T12:15:22.439Z,4.53
2023-04-28T12:17:50.701Z,4.32
2023-04-28T12:20:37.268Z,4.30
2023-04-28T12:23:05.405Z,5.07
2023-04-28T12:25:35.199Z,4.80
2023-04-28T12:28:04.663Z,4.72
2023-04-28T12:30:33.689Z,4.50
2023-04-28T12:33:01.022Z,4.75
2023-04-28T12:35:29.183Z,4.75
2023-04-28T12:37:56.986Z,4.85
2023-04-28T12:40:24.586Z,5.00
2023-04-28T12:42:51.798Z,5.38
2023-04-28T12:45:19.087Z,4.32
2023-04-28T12:47:46.372Z,4.18
2023-04-28T12:50:14.392Z,5.40
2023-04-28T12:52:41.479Z,4.10
2023-04-28T12:55:08.990Z,4.18
2023-04-28T12:57:39.012Z,4.30
2023-04-28T13:00:08.112Z,4.63
2023-04-28T13:02:36.610Z,5.70
2023-04-28T13:05:03.860Z,4.57
2023-04-28T13:07:30.976Z,5.03
2023-04-28T13:09:58.548Z,5.50
2023-04-28T13:12:25.828Z,5.18
2023-04-28T13:14:52.768Z,4.50
2023-04-28T13:17:19.779Z,4.63
2023-04-28T13:19:47.401Z,4.40
2023-04-28T13:22:14.740Z,4.30
2023-04-28T13:24:41.638Z,5.25
2023-04-28T13:27:12.412Z,4.55
2023-04-28T13:29:40.190Z,5.07
2023-04-28T13:32:07.242Z,4.15
2023-04-28T13:34:34.447Z,4.57
2023-04-28T13:37:01.394Z,4.57
2023-04-28T13:39:30.396Z,4.75
2023-04-28T13:41:57.257Z,4.93
2023-04-28T13:44:25.281Z,4.60
2023-04-28T13:46:53.442Z,4.75
2023-04-28T13:49:20.392Z,4.82
2023-04-28T13:51:47.372Z,4.35
2023-04-28T13:54:14.582Z,5.15
2023-04-28T13:56:41.610Z,4.68
2023-04-28T13:59:08.757Z,5.65
2023-04-28T14:01:35.895Z,4.22
2023-04-28T14:04:03.500Z,4.65
2023-04-28T14:06:32.406Z,4.25
2023-04-28T14:09:01.240Z,5.00
2023-04-28T14:11:28.097Z,5.22
2023-04-28T14:13:57.435Z,5.00
2023-04-28T14:16:24.597Z,5.28
2023-04-28T14:18:51.911Z,5.07
2023-04-28T14:21:18.767Z,5.30
2023-04-28T14:23:45.557Z,5.00
2023-04-28T14:26:12.608Z,5.82
2023-04-28T14:28:39.625Z,4.30
2023-04-28T14:31:08.631Z,4.82
2023-04-28T14:33:36.761Z,4.40
2023-04-28T14:36:04.083Z,4.57
2023-04-28T14:38:31.197Z,4.65
2023-04-28T14:40:58.273Z,4.60
2023-04-28T14:43:25.713Z,4.95
2023-04-28T14:45:53.028Z,5.10
2023-04-28T14:48:21.201Z,4.38
2023-04-28T14:50:48.469Z,5.10
2023-04-28T14:53:15.361Z,5.05
2023-04-28T14:55:42.452Z,4.75
2023-04-28T14:58:12.258Z,4.65
2023-04-28T15:00:39.329Z,4.43
2023-04-28T15:03:06.262Z,5.07
2023-04-28T15:05:33.550Z,4.20
2023-04-28T15:08:00.586Z,4.72
2023-04-28T15:10:37.371Z,4.03
2023-04-28T15:13:04.670Z,4.53
2023-04-28T15:15:31.943Z,6.05
2023-04-28T15:18:00.912Z,5.75
2023-04-28T15:20:33.242Z,5.85
2023-04-28T15:23:00.889Z,8.30
2023-04-28T15:25:27.942Z,5.93
2023-04-28T15:27:55.033Z,4.40
2023-04-28T15:30:22.427Z,7.22
2023-04-28T15:32:50.561Z,5.35
2023-04-28T15:35:17.638Z,4.78
2023-04-28T15:37:47.679Z,5.18
2023-04-28T15:40:16.674Z,5.75
2023-04-28T15:42:48.999Z,4.70
2023-04-28T15:45:18.494Z,4.93
2023-04-28T15:47:48.213Z,4.40
2023-04-28T15:50:16.114Z,4.38
2023-04-28T15:52:48.798Z,4.25
2023-04-28T15:55:16.936Z,4.43
2023-04-28T15:57:44.459Z,5.53
2023-04-28T16:00:12.081Z,6.03
2023-04-28T16:02:41.104Z,5.18
2023-04-28T16:05:08.705Z,6.55
2023-04-28T16:07:40.734Z,5.15
2023-04-28T16:10:12.764Z,8.93
2023-04-28T16:12:40.805Z,16.77
2023-04-28T16:15:10.891Z,12.27
2023-04-28T16:17:38.579Z,5.75
2023-04-28T16:20:07.200Z,7.88
2023-04-28T16:22:34.986Z,6.05
2023-04-28T16:25:03.801Z,5.07
2023-04-28T16:27:32.100Z,6.38
2023-04-28T16:30:00.411Z,5.18
2023-04-28T16:32:28.177Z,4.55
2023-04-28T16:34:58.320Z,5.28
2023-04-28T16:37:26.257Z,5.93
2023-04-28T16:39:53.306Z,5.30
2023-04-28T16:42:22.971Z,5.43
2023-04-28T16:44:52.562Z,5.10
2023-04-28T16:47:20.060Z,5.80
2023-04-28T16:49:46.909Z,5.70
2023-04-28T16:52:13.750Z,5.45
2023-04-28T16:54:40.547Z,5.78
2023-04-28T16:57:07.837Z,5.05
2023-04-28T16:59:35.830Z,5.65
2023-04-28T17:02:06.772Z,5.13
2023-04-28T17:04:34.455Z,5.88
2023-04-28T17:07:04.600Z,6.38
2023-04-28T17:09:33.287Z,6.53
2023-04-28T17:12:00.934Z,6.78
2023-04-28T17:14:27.899Z,6.18
2023-04-28T17:16:54.823Z,6.97
2023-04-28T17:19:22.428Z,7.68
2023-04-28T17:21:52.354Z,7.40
2023-04-28T17:24:19.398Z,6.75
2023-04-28T17:26:46.178Z,6.07
2023-04-28T17:29:12.990Z,6.75
2023-04-28T17:31:40.039Z,7.45
2023-04-28T17:34:07.095Z,7.50
2023-04-28T17:36:34.110Z,7.22
2023-04-28T17:39:01.348Z,8.73
2023-04-28T17:41:28.218Z,7.50
2023-04-28T17:43:55.055Z,6.63
2023-04-28T17:46:22.486Z,6.75
2023-04-28T17:48:49.526Z,6.88
2023-04-28T17:51:16.778Z,7.97
2023-04-28T17:53:43.702Z,7.90
2023-04-28T17:56:10.907Z,7.47
2023-04-28T17:58:37.972Z,7.68
2023-04-28T18:01:06.631Z,6.90
2023-04-28T18:03:38.141Z,6.82
2023-04-28T18:06:07.869Z,7.25
2023-04-28T18:08:36.885Z,6.47
2023-04-28T18:11:04.930Z,8.13
2023-04-28T18:13:33.324Z,7.30
2023-04-28T18:16:00.901Z,7.80
2023-04-28T18:18:30.241Z,9.47
2023-04-28T18:20:59.274Z,9.18
2023-04-28T18:23:27.426Z,11.83
2023-04-28T18:25:54.371Z,12.00
2023-04-28T18:28:21.323Z,12.93
2023-04-28T18:30:49.309Z,12.77
2023-04-28T18:33:20.543Z,12.83
2023-04-28T18:35:49.106Z,11.97
2023-04-28T18:38:16.019Z,10.90
2023-04-28T18:40:42.704Z,11.70
2023-04-28T18:43:13.293Z,11.00
2023-04-28T18:45:41.312Z,10.50
2023-04-28T18:48:10.271Z,9.73
2023-04-28T18:50:37.946Z,9.70
2023-04-28T18:53:05.348Z,9.00
2023-04-28T18:55:35.113Z,9.23
2023-04-28T18:58:02.387Z,9.10
2023-04-28T19:00:29.699Z,10.77
2023-04-28T19:02:57.015Z,12.40
2023-04-28T19:05:24.147Z,14.17
2023-04-28T19:07:51.187Z,13.33
2023-04-28T19:10:18.123Z,11.60
2023-04-28T19:12:45.106Z,10.47
2023-04-28T19:15:11.943Z,10.53
2023-04-28T19:17:39.492Z,12.23
2023-04-28T19:20:07.181Z,10.60
2023-04-28T19:22:40.342Z,11.17
2023-04-28T19:25:08.002Z,9.83
2023-04-28T19:27:37.083Z,11.60
2023-04-28T19:30:06.276Z,10.63
2023-04-28T19:32:35.141Z,11.53
2023-04-28T19:35:04.334Z,10.87
2023-04-28T19:37:32.266Z,11.60
2023-04-28T19:39:59.201Z,10.17
2023-04-28T19:42:26.284Z,10.50
2023-04-28T19:44:57.964Z,10.50
2023-04-28T19:47:26.530Z,9.90
2023-04-28T19:49:54.711Z,10.07
2023-04-28T19:52:22.388Z,10.30
2023-04-28T19:54:50.648Z,10.13
2023-04-28T19:57:19.110Z,9.97
2023-04-28T19:59:47.827Z,9.93
2023-04-28T20:02:16.005Z,11.83
2023-04-28T20:04:43.459Z,9.50
2023-04-28T20:07:11.483Z,10.07
2023-04-28T20:09:38.672Z,9.47
2023-04-28T20:12:07.737Z,10.80
2023-04-28T20:14:35.401Z,11.30
2023-04-28T20:17:04.069Z,10.53
2023-04-28T20:19:31.374Z,9.23
2023-04-28T20:21:58.379Z,9.47
2023-04-28T20:24:25.881Z,10.27
2023-04-28T20:26:54.678Z,9.70
2023-04-28T20:29:21.792Z,9.30
2023-04-28T20:31:48.919Z,9.33
2023-04-28T20:34:16.158Z,8.90
2023-04-28T20:36:43.247Z,9.50
2023-04-28T20:39:11.806Z,10.70
2023-04-28T20:41:41.034Z,9.30
2023-04-28T20:44:08.700Z,9.03
2023-04-28T20:46:36.100Z,10.20
2023-04-28T20:49:04.331Z,9.73
2023-04-28T20:51:35.154Z,8.60
2023-04-28T20:54:04.029Z,9.23
2023-04-28T20:56:30.912Z,9.30
2023-04-28T20:58:57.775Z,8.83
2023-04-28T21:01:24.983Z,9.80
2023-04-28T21:03:51.920Z,8.73
2023-04-28T21:06:19.481Z,9.27
2023-04-28T21:08:46.354Z,9.90
2023-04-28T21:11:16.975Z,10.33
2023-04-28T21:13:44.847Z,9.57
2023-04-28T21:16:20.562Z,10.77
2023-04-28T21:18:48.207Z,10.23
2023-04-28T21:21:15.360Z,10.63
2023-04-28T21:23:43.038Z,10.27
2023-04-28T21:26:10.603Z,9.60
2023-04-28T21:28:37.800Z,10.10
2023-04-28T21:31:05.673Z,10.00
2023-04-28T21:33:32.943Z,10.00
2023-04-28T21:36:05.586Z,10.37
2023-04-28T21:38:34.254Z,11.07
2023-04-28T21:41:01.282Z,10.90
2023-04-28T21:43:28.337Z,11.03
2023-04-28T21:45:55.323Z,11.40
2023-04-28T21:48:22.500Z,10.70
2023-04-28T21:50:49.678Z,9.73
2023-04-28T21:53:16.696Z,10.27
2023-04-28T21:55:44.745Z,10.33
2023-04-28T21:58:12.252Z,12.73
2023-04-28T22:00:43.246Z,10.80
2023-04-28T22:03:13.754Z,12.00
2023-04-28T22:05:42.150Z,11.40
2023-04-28T22:08:09.233Z,11.23
2023-04-28T22:10:36.541Z,11.30
2023-04-28T22:13:05.050Z,10.77
2023-04-28T22:15:32.650Z,10.07
2023-04-28T22:17:59.691Z,10.33
2023-04-28T22:20:26.940Z,10.13
2023-04-28T22:22:54.221Z,10.87
2023-04-28T22:25:21.545Z,9.43
2023-04-28T22:27:48.469Z,10.20
2023-04-28T22:30:15.736Z,10.40
2023-04-28T22:32:47.130Z,10.57
2023-04-28T22:35:14.764Z,9.97
2023-04-28T22:37:41.587Z,10.90
2023-04-28T22:40:09.937Z,11.03
2023-04-28T22:42:37.910Z,11.17
2023-04-28T22:45:06.686Z,10.67
2023-04-28T22:47:34.427Z,12.07
2023-04-28T22:50:05.866Z,10.97
2023-04-28T22:52:33.580Z,11.47
2023-04-28T22:55:00.946Z,11.50
2023-04-28T22:57:28.199Z,11.43
2023-04-28T22:59:55.441Z,11.07
2023-04-28T23:02:23.347Z,11.07
2023-04-28T23:04:50.971Z,11.73
2023-04-28T23:07:18.295Z,12.43
2023-04-28T23:09:45.386Z,9.90
2023-04-28T23:12:12.484Z,9.80
2023-04-28T23:14:39.659Z,11.50
2023-04-28T23:17:06.808Z,11.27
2023-04-28T23:19:39.259Z,11.13
2023-04-28T23:22:07.556Z,9.40
2023-04-28T23:24:36.785Z,9.87
2023-04-28T23:27:04.668Z,10.03
2023-04-28T23:29:31.924Z,9.20
2023-04-28T23:32:01.079Z,10.33
2023-04-28T23:34:29.883Z,9.77
2023-04-28T23:36:56.902Z,9.87
2023-04-28T23:39:24.653Z,10.10
2023-04-28T23:41:51.795Z,9.70
2023-04-28T23:44:20.635Z,9.87
2023-04-28T23:46:49.038Z,10.37
2023-04-28T23:49:16.476Z,10.43
2023-04-28T23:51:43.679Z,11.17
2023-04-28T23:54:10.646Z,10.07
2023-04-28T23:56:37.693Z,9.43
2023-04-28T23:59:05.361Z,8.77
